createdAt,value
2017-08-30T00:01:59.242Z,8.23
2017-08-30T00:04:26.753Z,8.80
2017-08-30T00:06:54.297Z,8.67
2017-08-30T00:09:21.815Z,7.33
2017-08-30T00:11:49.316Z,8.10
2017-08-30T00:14:16.864Z,8.53
2017-08-30T00:16:44.383Z,8.80
2017-08-30T00:19:11.879Z,8.57
2017-08-30T00:21:39.727Z,8.03
2017-08-30T00:24:07.246Z,7.60
2017-08-30T00:26:34.749Z,8.80
2017-08-30T00:29:02.321Z,8.10
2017-08-30T00:31:29.838Z,7.53
2017-08-30T00:33:57.335Z,9.43
2017-08-30T00:36:24.875Z,8.30
2017-08-30T00:38:52.385Z,8.47
2017-08-30T00:41:19.902Z,7.60
2017-08-30T00:43:47.446Z,8.30
2017-08-30T00:46:14.959Z,8.17
2017-08-30T00:48:42.480Z,7.77
2017-08-30T00:51:10.007Z,7.50
2017-08-30T00:53:37.526Z,8.07
2017-08-30T00:56:05.037Z,8.60
2017-08-30T00:58:32.583Z,7.93
2017-08-30T01:01:00.077Z,7.67
2017-08-30T01:03:27.602Z,8.53
2017-08-30T01:05:55.154Z,7.90
2017-08-30T01:08:22.656Z,9.13
2017-08-30T01:10:50.151Z,7.67
2017-08-30T01:13:17.702Z,8.43
2017-08-30T01:15:45.214Z,8.03
2017-08-30T01:18:12.726Z,8.10
2017-08-30T01:20:40.347Z,9.03
2017-08-30T01:23:07.848Z,8.60
2017-08-30T01:25:35.343Z,9.30
2017-08-30T01:28:02.891Z,8.50
2017-08-30T01:30:31.151Z,8.13
2017-08-30T01:32:58.653Z,9.60
2017-08-30T01:35:26.179Z,8.53
2017-08-30T01:37:53.675Z,8.60
2017-08-30T01:40:21.252Z,9.17
2017-08-30T01:42:48.780Z,9.20
2017-08-30T01:45:16.282Z,9.33
2017-08-30T01:47:43.804Z,9.17
2017-08-30T01:50:11.336Z,9.43
2017-08-30T01:52:38.892Z,8.43
2017-08-30T01:55:06.400Z,9.10
2017-08-30T01:57:33.923Z,9.53
2017-08-30T02:00:01.428Z,9.57
2017-08-30T02:02:28.946Z,9.50
2017-08-30T02:04:56.476Z,9.00
2017-08-30T02:07:23.976Z,8.80
2017-08-30T02:09:51.480Z,10.60
2017-08-30T02:12:19.034Z,9.73
2017-08-30T02:14:46.553Z,10.50
2017-08-30T02:17:14.056Z,9.20
2017-08-30T02:19:42.357Z,9.20
2017-08-30T02:22:09.878Z,9.87
2017-08-30T02:24:37.371Z,9.00
2017-08-30T02:27:04.925Z,10.80
2017-08-30T02:29:32.440Z,10.30
2017-08-30T02:31:59.955Z,9.97
2017-08-30T02:34:27.488Z,10.03
2017-08-30T02:36:54.994Z,8.73
2017-08-30T02:39:22.515Z,8.83
2017-08-30T02:41:50.063Z,9.90
2017-08-30T02:44:18.346Z,8.80
2017-08-30T02:46:45.840Z,9.90
2017-08-30T02:49:13.378Z,9.60
2017-08-30T02:51:40.936Z,10.17
2017-08-30T02:54:09.201Z,9.97
2017-08-30T02:56:36.735Z,10.70
2017-08-30T02:59:04.255Z,10.93
2017-08-30T03:01:31.769Z,10.50
2017-08-30T03:03:59.302Z,11.80
2017-08-30T03:06:26.830Z,11.03
2017-08-30T03:08:54.351Z,11.33
2017-08-30T03:11:21.902Z,10.70
2017-08-30T03:13:49.408Z,10.90
2017-08-30T03:16:16.926Z,10.90
2017-08-30T03:18:44.459Z,12.23
2017-08-30T03:21:11.968Z,12.80
2017-08-30T03:23:39.491Z,14.10
2017-08-30T03:26:07.098Z,13.50
2017-08-30T03:28:34.602Z,14.90
2017-08-30T03:31:02.131Z,15.60
2017-08-30T03:33:29.669Z,14.13
2017-08-30T03:35:57.216Z,15.03
2017-08-30T03:38:24.721Z,15.67
2017-08-30T03:40:52.348Z,16.00
2017-08-30T03:43:19.866Z,16.90
2017-08-30T03:45:47.388Z,16.60
2017-08-30T03:48:14.948Z,16.17
2017-08-30T03:50:42.474Z,17.43
2017-08-30T03:53:09.980Z,18.33
2017-08-30T03:55:37.527Z,17.83
2017-08-30T03:58:05.032Z,15.90
2017-08-30T04:00:32.545Z,15.77
2017-08-30T04:03:00.098Z,15.07
2017-08-30T04:05:27.614Z,14.57
2017-08-30T04:07:55.128Z,16.10
2017-08-30T04:10:22.674Z,16.27
2017-08-30T04:12:50.176Z,16.83
2017-08-30T04:15:17.675Z,16.20
2017-08-30T04:17:45.226Z,18.07
2017-08-30T04:20:12.745Z,18.53
2017-08-30T04:22:40.270Z,18.33
2017-08-30T04:25:07.808Z,18.70
2017-08-30T04:27:35.308Z,18.53
2017-08-30T04:30:02.816Z,19.27
2017-08-30T04:32:30.363Z,17.77
2017-08-30T04:34:57.883Z,17.53
2017-08-30T04:37:25.496Z,19.73
2017-08-30T04:39:53.027Z,18.97
2017-08-30T04:42:20.532Z,19.90
2017-08-30T04:44:48.040Z,18.10
2017-08-30T04:47:15.571Z,17.50
2017-08-30T04:49:43.086Z,19.00
2017-08-30T04:52:10.598Z,19.23
2017-08-30T04:54:38.203Z,16.27
2017-08-30T04:57:05.840Z,18.90
2017-08-30T04:59:33.339Z,18.17
2017-08-30T05:02:00.869Z,19.77
2017-08-30T05:04:28.390Z,19.20
2017-08-30T05:06:55.893Z,17.93
2017-08-30T05:09:23.430Z,19.47
2017-08-30T05:11:51.015Z,17.00
2017-08-30T05:14:18.533Z,16.67
2017-08-30T05:16:46.828Z,17.43
2017-08-30T05:19:14.350Z,17.43
2017-08-30T05:21:41.868Z,19.70
2017-08-30T05:24:09.428Z,18.67
2017-08-30T05:26:36.932Z,19.83
2017-08-30T05:29:04.453Z,18.70
2017-08-30T05:31:32.001Z,17.93
2017-08-30T05:33:59.514Z,18.07
2017-08-30T05:36:27.015Z,17.13
2017-08-30T05:38:54.548Z,18.30
2017-08-30T05:41:22.824Z,17.83
2017-08-30T05:43:50.347Z,17.70
2017-08-30T05:46:17.875Z,17.10
2017-08-30T05:48:45.394Z,17.13
2017-08-30T05:51:12.942Z,17.23
2017-08-30T05:53:40.462Z,18.30
2017-08-30T05:56:07.965Z,18.80
2017-08-30T05:58:35.487Z,17.77
2017-08-30T06:01:02.987Z,17.77
2017-08-30T06:03:30.540Z,18.33
2017-08-30T06:05:58.066Z,18.90
2017-08-30T06:08:25.600Z,18.60
2017-08-30T06:10:53.099Z,18.53
2017-08-30T06:13:20.617Z,18.60
2017-08-30T06:15:48.151Z,17.50
2017-08-30T06:18:15.670Z,16.90
2017-08-30T06:20:43.214Z,18.70
2017-08-30T06:23:10.849Z,18.47
2017-08-30T06:25:38.383Z,17.83
2017-08-30T06:28:06.652Z,19.10
2017-08-30T06:30:34.963Z,18.80
2017-08-30T06:33:02.465Z,17.33
2017-08-30T06:35:29.968Z,17.70
2017-08-30T06:37:57.492Z,16.60
2017-08-30T06:40:25.773Z,16.57
2017-08-30T06:42:53.335Z,15.07
2017-08-30T06:45:20.835Z,15.43
2017-08-30T06:47:48.390Z,15.57
2017-08-30T06:50:15.891Z,14.10
2017-08-30T06:52:43.397Z,15.57
2017-08-30T06:55:10.928Z,13.47
2017-08-30T06:57:39.210Z,14.00
2017-08-30T07:00:06.730Z,13.97
2017-08-30T07:02:34.254Z,13.30
2017-08-30T07:05:01.770Z,13.40
2017-08-30T07:07:29.291Z,14.27
2017-08-30T07:09:56.829Z,13.43
2017-08-30T07:12:24.362Z,12.80
2017-08-30T07:14:52.675Z,13.07
2017-08-30T07:17:20.180Z,11.70
2017-08-30T07:19:47.688Z,12.37
2017-08-30T07:22:15.216Z,11.70
2017-08-30T07:24:42.724Z,11.53
2017-08-30T07:27:10.356Z,10.97
2017-08-30T07:29:37.874Z,11.53
2017-08-30T07:32:05.376Z,10.00
2017-08-30T07:34:32.922Z,10.73
2017-08-30T07:37:00.444Z,10.20
2017-08-30T07:39:27.979Z,10.20
2017-08-30T07:41:55.500Z,10.27
2017-08-30T07:44:23.065Z,10.50
2017-08-30T07:46:50.600Z,9.90
2017-08-30T07:49:18.114Z,9.63
2017-08-30T07:51:45.635Z,10.13
2017-08-30T07:54:13.234Z,9.10
2017-08-30T07:56:40.736Z,9.30
2017-08-30T07:59:08.282Z,10.57
2017-08-30T08:01:35.785Z,9.70
2017-08-30T08:04:03.303Z,8.30
2017-08-30T08:06:31.611Z,8.77
2017-08-30T08:08:59.107Z,9.10
2017-08-30T08:11:26.628Z,8.90
2017-08-30T08:13:54.185Z,8.10
2017-08-30T08:16:21.735Z,9.50
2017-08-30T08:18:49.258Z,8.70
2017-08-30T08:21:16.773Z,9.63
2017-08-30T08:23:44.311Z,8.60
2017-08-30T08:26:11.812Z,9.20
2017-08-30T08:28:39.337Z,9.13
2017-08-30T08:31:06.895Z,8.77
2017-08-30T08:33:34.415Z,8.60
2017-08-30T08:36:01.953Z,7.40
2017-08-30T08:38:29.474Z,8.57
2017-08-30T08:40:56.995Z,7.77
2017-08-30T08:43:24.496Z,8.30
2017-08-30T08:45:52.004Z,7.40
2017-08-30T08:48:19.536Z,7.23
2017-08-30T08:50:47.055Z,6.67
2017-08-30T08:53:14.583Z,8.43
2017-08-30T08:55:42.134Z,8.07
2017-08-30T08:58:09.646Z,8.87
2017-08-30T09:00:37.157Z,9.00
2017-08-30T09:03:04.680Z,9.60
2017-08-30T09:05:32.179Z,9.30
2017-08-30T09:07:59.707Z,10.00
2017-08-30T09:10:27.208Z,9.43
2017-08-30T09:12:54.715Z,9.60
2017-08-30T09:15:22.269Z,8.40
2017-08-30T09:17:49.794Z,9.30
2017-08-30T09:20:17.317Z,9.00
2017-08-30T09:22:44.862Z,8.60
2017-08-30T09:25:12.375Z,9.53
2017-08-30T09:27:39.891Z,9.50
2017-08-30T09:30:07.438Z,8.80
2017-08-30T09:32:34.943Z,9.70
2017-08-30T09:35:02.454Z,8.90
2017-08-30T09:37:29.973Z,9.70
2017-08-30T09:39:57.476Z,9.70
2017-08-30T09:42:25.007Z,8.67
2017-08-30T09:44:52.651Z,9.70
2017-08-30T09:47:20.171Z,9.60
2017-08-30T09:49:47.700Z,9.53
2017-08-30T09:52:15.220Z,9.10
2017-08-30T09:54:42.724Z,9.43
2017-08-30T09:57:10.266Z,9.10
2017-08-30T09:59:37.771Z,9.77
2017-08-30T10:02:05.360Z,8.70
2017-08-30T10:04:32.884Z,9.07
2017-08-30T10:07:00.392Z,9.60
2017-08-30T10:09:27.924Z,9.47
2017-08-30T10:11:55.428Z,8.33
2017-08-30T10:14:22.932Z,9.07
2017-08-30T10:16:50.460Z,8.70
2017-08-30T10:19:18.067Z,8.43
2017-08-30T10:21:45.560Z,8.13
2017-08-30T10:24:13.111Z,8.53
2017-08-30T10:26:40.946Z,8.70
2017-08-30T10:29:08.448Z,8.80
2017-08-30T10:31:35.980Z,8.77
2017-08-30T10:34:03.490Z,7.47
2017-08-30T10:36:31.002Z,8.63
2017-08-30T10:38:58.535Z,9.27
2017-08-30T10:41:26.042Z,8.80
2017-08-30T10:43:53.547Z,8.77
2017-08-30T10:46:21.075Z,8.20
2017-08-30T10:48:48.586Z,8.30
2017-08-30T10:51:16.122Z,8.67
2017-08-30T10:53:43.692Z,8.73
2017-08-30T10:56:11.214Z,8.53
2017-08-30T10:58:39.495Z,9.00
2017-08-30T11:01:07.023Z,9.50
2017-08-30T11:03:34.539Z,9.27
2017-08-30T11:06:02.059Z,9.60
2017-08-30T11:08:30.364Z,9.30
2017-08-30T11:10:57.867Z,9.17
2017-08-30T11:13:25.399Z,9.57
2017-08-30T11:15:52.950Z,10.50
2017-08-30T11:18:20.522Z,9.80
2017-08-30T11:20:48.039Z,9.90
2017-08-30T11:23:16.370Z,9.40
2017-08-30T11:25:43.894Z,9.93
2017-08-30T11:28:11.395Z,9.60
2017-08-30T11:30:39.036Z,10.47
2017-08-30T11:33:06.562Z,10.57
2017-08-30T11:35:34.096Z,10.10
2017-08-30T11:38:01.642Z,10.93
2017-08-30T11:40:29.263Z,10.47
2017-08-30T11:42:56.776Z,11.50
2017-08-30T11:45:24.316Z,10.90
2017-08-30T11:47:51.840Z,11.60
2017-08-30T11:50:19.359Z,12.13
2017-08-30T11:52:46.891Z,12.30
2017-08-30T11:55:14.415Z,12.40
2017-08-30T11:57:41.942Z,11.80
2017-08-30T12:00:09.531Z,11.07
2017-08-30T12:02:37.032Z,10.53
2017-08-30T12:05:04.550Z,10.37
2017-08-30T12:07:32.079Z,10.50
2017-08-30T12:09:59.598Z,9.83
2017-08-30T12:12:27.104Z,9.20
2017-08-30T12:14:54.667Z,9.33
2017-08-30T12:17:22.172Z,9.33
2017-08-30T12:19:49.682Z,9.60
2017-08-30T12:22:17.224Z,8.67
2017-08-30T12:24:44.749Z,9.03
2017-08-30T12:27:12.251Z,9.77
2017-08-30T12:29:39.802Z,8.90
2017-08-30T12:32:07.322Z,10.03
2017-08-30T12:34:34.844Z,8.30
2017-08-30T12:37:08.120Z,9.87
2017-08-30T12:39:38.580Z,9.23
2017-08-30T12:42:06.084Z,9.30
2017-08-30T12:44:33.638Z,9.50
2017-08-30T12:47:01.140Z,9.33
2017-08-30T12:49:28.640Z,9.73
2017-08-30T12:51:56.183Z,9.30
2017-08-30T12:54:23.709Z,9.77
2017-08-30T12:56:51.235Z,9.17
2017-08-30T12:59:18.768Z,8.80
2017-08-30T13:01:46.282Z,9.50
2017-08-30T13:04:13.797Z,9.40
2017-08-30T13:06:41.328Z,9.40
2017-08-30T13:09:08.868Z,9.63
2017-08-30T13:11:36.387Z,9.60
2017-08-30T13:14:03.935Z,10.00
2017-08-30T13:16:31.454Z,9.60
2017-08-30T13:18:58.977Z,10.50
2017-08-30T13:21:26.521Z,10.53
2017-08-30T13:23:54.042Z,9.50
2017-08-30T13:26:21.587Z,10.03
2017-08-30T13:28:49.241Z,11.50
2017-08-30T13:31:17.519Z,12.40
2017-08-30T13:33:45.043Z,11.27
2017-08-30T13:36:12.576Z,12.77
2017-08-30T13:38:40.093Z,11.50
2017-08-30T13:41:07.591Z,11.40
2017-08-30T13:43:35.903Z,13.47
2017-08-30T13:46:03.421Z,11.70
2017-08-30T13:48:30.923Z,11.23
2017-08-30T13:50:58.464Z,12.63
2017-08-30T13:53:26.948Z,11.77
2017-08-30T13:55:54.462Z,14.10
2017-08-30T13:58:22.011Z,12.17
2017-08-30T14:00:49.539Z,11.90
2017-08-30T14:03:17.047Z,13.37
2017-08-30T14:05:44.593Z,12.80
2017-08-30T14:08:12.134Z,12.53
2017-08-30T14:10:39.647Z,12.63
2017-08-30T14:13:07.184Z,12.53
2017-08-30T14:15:34.710Z,13.47
2017-08-30T14:18:02.213Z,13.03
2017-08-30T14:20:29.825Z,13.97
2017-08-30T14:22:57.347Z,14.60
2017-08-30T14:25:24.943Z,16.47
2017-08-30T14:27:52.480Z,15.40
2017-08-30T14:30:20.009Z,15.00
2017-08-30T14:32:47.522Z,17.27
2017-08-30T14:35:15.051Z,16.63
2017-08-30T14:37:43.320Z,16.40
2017-08-30T14:40:10.838Z,16.10
2017-08-30T14:42:38.388Z,16.23
2017-08-30T14:45:05.914Z,16.73
2017-08-30T14:47:34.305Z,13.53
2017-08-30T14:50:01.861Z,16.93
2017-08-30T14:52:29.386Z,13.27
2017-08-30T14:54:56.901Z,9.73
2017-08-30T14:57:24.440Z,9.47
2017-08-30T14:59:51.959Z,9.50
2017-08-30T15:02:20.228Z,9.40
2017-08-30T15:04:47.760Z,12.27
2017-08-30T15:07:15.294Z,12.97
2017-08-30T15:09:42.796Z,12.27
2017-08-30T15:12:10.346Z,12.17
2017-08-30T15:14:37.847Z,12.27
2017-08-30T15:17:05.361Z,12.97
2017-08-30T15:19:32.911Z,12.30
2017-08-30T15:22:00.415Z,14.10
2017-08-30T15:24:27.914Z,14.47
2017-08-30T15:26:55.755Z,13.57
2017-08-30T15:29:23.255Z,13.97
2017-08-30T15:31:50.769Z,14.40
2017-08-30T15:34:18.303Z,14.40
2017-08-30T15:36:46.590Z,16.40
2017-08-30T15:39:14.114Z,15.75
2017-08-30T15:41:41.653Z,17.00
2017-08-30T15:44:09.192Z,15.00
2017-08-30T15:46:36.710Z,16.73
2017-08-30T15:49:04.263Z,15.20
2017-08-30T15:51:31.756Z,14.60
2017-08-30T15:53:59.259Z,15.97
2017-08-30T15:56:26.810Z,17.03
2017-08-30T15:58:54.342Z,16.40
2017-08-30T16:01:21.857Z,16.27
2017-08-30T16:03:49.396Z,16.10
2017-08-30T16:06:16.904Z,16.90
2017-08-30T16:08:44.429Z,17.33
2017-08-30T16:11:11.964Z,16.93
2017-08-30T16:13:39.588Z,17.70
2017-08-30T16:16:07.094Z,18.37
2017-08-30T16:18:34.635Z,17.87
2017-08-30T16:21:02.136Z,19.07
2017-08-30T16:23:29.732Z,20.23
2017-08-30T16:25:57.263Z,16.17
2017-08-30T16:28:24.772Z,17.60
2017-08-30T16:30:52.272Z,16.90
2017-08-30T16:33:19.866Z,16.30
2017-08-30T16:35:47.368Z,16.80
2017-08-30T16:38:14.926Z,17.70
2017-08-30T16:40:42.455Z,16.17
2017-08-30T16:43:09.957Z,19.27
2017-08-30T16:45:37.473Z,19.77
2017-08-30T16:48:05.026Z,19.17
2017-08-30T16:50:32.544Z,19.10
2017-08-30T16:53:00.825Z,17.13
2017-08-30T16:55:28.374Z,19.40
2017-08-30T16:57:56.664Z,18.93
2017-08-30T17:00:24.544Z,19.00
2017-08-30T17:02:52.071Z,20.30
2017-08-30T17:05:20.358Z,20.30
2017-08-30T17:07:48.642Z,22.70
2017-08-30T17:10:16.224Z,22.53
2017-08-30T17:12:43.742Z,25.77
2017-08-30T17:15:11.279Z,22.37
2017-08-30T17:17:38.826Z,23.03
2017-08-30T17:20:06.331Z,24.50
2017-08-30T17:22:34.635Z,29.17
2017-08-30T17:25:02.178Z,28.60
2017-08-30T17:27:29.703Z,28.53
2017-08-30T17:29:57.226Z,29.10
2017-08-30T17:32:24.794Z,30.63
2017-08-30T17:34:52.328Z,36.87
2017-08-30T17:37:19.849Z,37.27
2017-08-30T17:39:48.166Z,31.20
2017-08-30T17:42:15.685Z,19.20
2017-08-30T17:44:43.972Z,13.23
2017-08-30T17:47:11.503Z,10.80
2017-08-30T17:49:39.018Z,13.10
2017-08-30T17:52:06.575Z,12.00
2017-08-30T17:54:34.105Z,11.67
2017-08-30T17:57:01.622Z,12.10
2017-08-30T17:59:29.142Z,10.37
2017-08-30T18:01:56.686Z,9.60
2017-08-30T18:04:24.207Z,8.93
2017-08-30T18:06:51.725Z,9.57
2017-08-30T18:09:19.256Z,9.80
2017-08-30T18:11:46.770Z,9.17
2017-08-30T18:14:14.300Z,10.30
2017-08-30T18:16:41.823Z,9.43
2017-08-30T18:19:09.350Z,9.10
2017-08-30T18:21:36.862Z,9.30
2017-08-30T18:24:04.436Z,9.70
2017-08-30T18:26:31.935Z,9.57
2017-08-30T18:28:59.483Z,9.80
2017-08-30T18:31:27.010Z,9.70
2017-08-30T18:33:54.550Z,10.20
2017-08-30T18:36:22.815Z,9.80
2017-08-30T18:38:51.121Z,9.47
2017-08-30T18:41:18.620Z,9.53
2017-08-30T18:43:46.146Z,8.53
2017-08-30T18:46:13.647Z,10.00
2017-08-30T18:48:41.189Z,9.90
2017-08-30T18:51:08.688Z,9.30
2017-08-30T18:53:36.586Z,9.87
2017-08-30T18:56:04.870Z,9.63
2017-08-30T18:58:32.376Z,12.73
2017-08-30T19:00:59.916Z,14.93
2017-08-30T19:03:27.434Z,18.27
2017-08-30T19:05:54.985Z,17.13
2017-08-30T19:08:22.497Z,20.30
2017-08-30T19:10:50.015Z,16.00
2017-08-30T19:13:17.562Z,17.60
2017-08-30T19:15:45.064Z,18.13
2017-08-30T19:18:12.606Z,17.93
2017-08-30T19:20:40.107Z,18.20
2017-08-30T19:23:07.654Z,19.60
2017-08-30T19:25:35.167Z,19.23
2017-08-30T19:28:02.690Z,20.93
2017-08-30T19:30:30.247Z,20.97
2017-08-30T19:32:57.767Z,19.33
2017-08-30T19:35:25.273Z,18.50
2017-08-30T19:37:52.817Z,18.80
2017-08-30T19:40:20.337Z,20.67
2017-08-30T19:42:47.849Z,23.50
2017-08-30T19:45:15.380Z,21.77
2017-08-30T19:47:42.898Z,20.77
2017-08-30T19:50:10.419Z,23.13
2017-08-30T19:52:37.978Z,20.53
2017-08-30T19:55:05.480Z,22.10
2017-08-30T19:57:32.988Z,22.63
2017-08-30T20:00:01.289Z,21.63
2017-08-30T20:02:28.794Z,25.33
2017-08-30T20:04:56.412Z,24.90
2017-08-30T20:07:23.967Z,25.33
2017-08-30T20:09:51.504Z,25.17
2017-08-30T20:12:19.018Z,23.60
2017-08-30T20:14:46.548Z,23.33
2017-08-30T20:17:14.102Z,20.30
2017-08-30T20:19:41.632Z,22.33
2017-08-30T20:22:09.160Z,20.53
2017-08-30T20:24:36.687Z,20.77
2017-08-30T20:27:04.196Z,18.33
2017-08-30T20:29:31.735Z,17.07
2017-08-30T20:31:59.263Z,18.37
2017-08-30T20:34:27.551Z,17.77
2017-08-30T20:36:55.084Z,18.90
2017-08-30T20:39:22.647Z,18.60
2017-08-30T20:41:50.164Z,16.37
2017-08-30T20:44:18.478Z,16.00
2017-08-30T20:46:46.049Z,17.57
2017-08-30T20:49:13.569Z,18.43
2017-08-30T20:51:41.160Z,16.90
2017-08-30T20:54:08.660Z,21.70
2017-08-30T20:56:36.193Z,22.53
2017-08-30T20:59:03.696Z,22.43
2017-08-30T21:01:31.996Z,23.37
2017-08-30T21:03:59.533Z,21.53
2017-08-30T21:06:27.054Z,18.83
2017-08-30T21:08:54.689Z,16.10
2017-08-30T21:11:22.192Z,16.73
2017-08-30T21:13:49.809Z,17.00
2017-08-30T21:16:17.359Z,17.10
2017-08-30T21:18:44.891Z,17.67
2017-08-30T21:21:12.392Z,18.20
2017-08-30T21:23:39.946Z,19.70
2017-08-30T21:26:07.468Z,18.30
2017-08-30T21:28:34.990Z,18.50
2017-08-30T21:31:02.547Z,18.80
2017-08-30T21:33:30.068Z,18.97
2017-08-30T21:35:57.578Z,18.60
2017-08-30T21:38:25.126Z,18.50
2017-08-30T21:40:52.627Z,18.30
2017-08-30T21:43:20.159Z,15.90
2017-08-30T21:45:47.659Z,18.47
2017-08-30T21:48:15.174Z,18.00
2017-08-30T21:50:42.704Z,18.80
2017-08-30T21:53:10.991Z,17.60
2017-08-30T21:55:38.564Z,17.70
2017-08-30T21:58:06.100Z,15.00
2017-08-30T22:00:33.603Z,14.77
2017-08-30T22:03:01.117Z,11.83
2017-08-30T22:05:28.648Z,11.40
2017-08-30T22:07:56.167Z,11.17
2017-08-30T22:10:23.687Z,10.37
2017-08-30T22:12:52.001Z,11.50
2017-08-30T22:15:20.273Z,11.87
2017-08-30T22:17:47.775Z,10.77
2017-08-30T22:20:15.304Z,10.87
2017-08-30T22:22:42.807Z,10.73
2017-08-30T22:25:10.316Z,11.67
2017-08-30T22:27:37.867Z,11.50
2017-08-30T22:30:05.369Z,10.80
2017-08-30T22:32:32.891Z,12.60
2017-08-30T22:35:00.445Z,12.57
2017-08-30T22:37:27.949Z,12.43
2017-08-30T22:39:55.489Z,11.07
2017-08-30T22:42:23.014Z,12.90
2017-08-30T22:44:50.511Z,11.40
2017-08-30T22:47:18.045Z,11.10
2017-08-30T22:49:45.562Z,10.23
2017-08-30T22:52:13.112Z,10.40
2017-08-30T22:54:41.384Z,9.93
2017-08-30T22:57:08.891Z,10.60
2017-08-30T22:59:36.438Z,10.47
2017-08-30T23:02:03.948Z,11.87
2017-08-30T23:04:31.451Z,10.73
2017-08-30T23:06:58.983Z,10.47
2017-08-30T23:09:26.484Z,10.00
2017-08-30T23:11:54.010Z,10.77
2017-08-30T23:14:21.535Z,9.83
2017-08-30T23:16:49.040Z,11.43
2017-08-30T23:19:16.566Z,11.63
2017-08-30T23:21:44.122Z,10.40
2017-08-30T23:24:12.435Z,11.70
2017-08-30T23:26:39.945Z,11.17
2017-08-30T23:29:07.495Z,11.77
2017-08-30T23:31:34.997Z,12.53
2017-08-30T23:34:02.517Z,13.83
2017-08-30T23:36:30.126Z,13.47
2017-08-30T23:38:57.657Z,13.73
2017-08-30T23:41:25.160Z,14.83
2017-08-30T23:43:52.696Z,16.00
2017-08-30T23:46:20.195Z,15.63
2017-08-30T23:48:47.714Z,14.07
2017-08-30T23:51:15.265Z,14.30
2017-08-30T23:53:42.782Z,15.47
2017-08-30T23:56:10.294Z,15.87
2017-08-30T23:58:37.848Z,15.60
